Time;durP1;ratioP1;P1;durP2;ratioP2;P2;SDS_P1;SDS_P2;PMS_P1;PMS_P2;Temp;Humidity;BMP_temperature;BMP_pressure;BME280_temperature;BME280_humidity;BME280_pressure;Samples;Min_cycle;Max_cycle;Signal;HPM_P1;HPM_P2
2020/12/08 00:01:04;;;;;;;24.07;17.33;;;5.90;99.90;;;;;;5034012;28;20275;-88
2020/12/08 00:03:29;;;;;;;25.60;15.40;;;6.00;99.90;;;;;;5033685;28;20172;-89
2020/12/08 00:05:55;;;;;;;21.17;14.80;;;6.00;99.90;;;;;;5034176;28;20528;-89
2020/12/08 00:08:21;;;;;;;23.83;14.83;;;6.00;99.90;;;;;;5033134;28;20195;-89
2020/12/08 00:10:47;;;;;;;25.40;15.43;;;6.20;99.90;;;;;;5033300;28;20187;-89
2020/12/08 00:13:12;;;;;;;22.53;15.30;;;6.20;99.90;;;;;;5033854;28;20566;-89
2020/12/08 00:15:38;;;;;;;19.67;14.30;;;6.30;99.90;;;;;;5025631;28;20189;-89
2020/12/08 00:18:04;;;;;;;21.23;14.93;;;6.10;99.90;;;;;;5013665;28;20239;-89
2020/12/08 00:20:30;;;;;;;19.77;13.70;;;6.00;99.90;;;;;;5013676;28;20177;-88
2020/12/08 00:22:56;;;;;;;19.00;13.63;;;6.00;99.90;;;;;;4997664;28;20256;-89
2020/12/08 00:25:24;;;;;;;17.07;13.63;;;5.80;99.90;;;;;;5027813;28;20244;-89
2020/12/08 00:27:49;;;;;;;20.47;12.83;;;5.50;99.90;;;;;;5033742;28;20176;-90
2020/12/08 00:30:15;;;;;;;15.77;12.07;;;5.00;99.90;;;;;;5034327;28;20254;-89
2020/12/08 00:32:43;;;;;;;15.77;12.67;;;4.80;99.90;;;;;;5002077;28;20257;-90
2020/12/08 00:35:11;;;;;;;15.77;12.47;;;4.50;99.90;;;;;;5016803;28;20176;-89
2020/12/08 00:37:41;;;;;;;18.77;12.00;;;4.50;99.90;;;;;;5033266;28;20767;-89
2020/12/08 00:40:13;;;;;;;17.10;13.63;;;4.60;99.90;;;;;;5033222;28;20179;-89
2020/12/08 00:42:39;;;;;;;22.40;12.37;;;4.70;99.90;;;;;;5033099;28;20178;-89
2020/12/08 00:45:10;;;;;;;17.23;12.53;;;4.80;99.90;;;;;;5033439;28;20169;-89
2020/12/08 00:47:36;;;;;;;17.77;12.93;;;5.00;99.90;;;;;;5033529;28;20621;-89
2020/12/08 00:50:03;;;;;;;18.33;13.43;;;5.10;99.90;;;;;;5032663;28;20178;-90
2020/12/08 00:52:29;;;;;;;18.17;11.83;;;4.80;99.90;;;;;;5033063;28;20271;-90
2020/12/08 00:54:57;;;;;;;15.77;12.03;;;4.40;99.90;;;;;;5033023;28;20271;-89
2020/12/08 00:57:23;;;;;;;19.17;12.20;;;4.10;99.90;;;;;;5034437;28;20649;-89
2020/12/08 00:59:52;;;;;;;17.07;11.97;;;3.90;99.90;;;;;;5003784;28;20187;-90
2020/12/08 01:02:18;;;;;;;21.73;13.37;;;3.80;99.90;;;;;;5034069;28;20173;-89
2020/12/08 01:04:44;;;;;;;18.43;12.47;;;3.70;99.90;;;;;;5033963;28;20172;-89
2020/12/08 01:07:11;;;;;;;17.87;12.50;;;3.50;99.90;;;;;;5032818;28;20693;-90
2020/12/08 01:09:38;;;;;;;16.50;12.03;;;3.30;99.90;;;;;;5036865;28;20179;-88
2020/12/08 01:12:06;;;;;;;16.17;12.77;;;3.20;99.90;;;;;;5037251;28;20206;-89
2020/12/08 01:14:32;;;;;;;17.17;13.00;;;3.30;99.90;;;;;;5036533;28;20241;-89
2020/12/08 01:17:02;;;;;;;19.53;13.37;;;3.30;99.90;;;;;;5036819;28;20164;-89
2020/12/08 01:19:27;;;;;;;23.53;13.47;;;3.10;99.90;;;;;;5036541;28;20676;-89
2020/12/08 01:21:54;;;;;;;16.90;13.27;;;3.10;99.90;;;;;;5020009;28;20180;-89
2020/12/08 01:24:20;;;;;;;19.17;12.80;;;3.10;99.90;;;;;;5030530;28;20266;-89
2020/12/08 01:26:49;;;;;;;17.40;13.17;;;3.20;99.90;;;;;;5016371;28;20180;-89
2020/12/08 01:29:14;;;;;;;19.77;12.93;;;3.30;99.90;;;;;;5033143;28;20273;-91
2020/12/08 01:31:40;;;;;;;18.10;12.97;;;3.40;99.90;;;;;;5036407;28;20188;-90
2020/12/08 01:34:09;;;;;;;17.07;13.10;;;3.70;99.90;;;;;;5036323;28;20580;-89
2020/12/08 01:36:45;;;;;;;;;;;;;;;;;;;;;
2020/12/08 01:39:13;;;;;;;20.67;13.80;;;4.20;99.90;;;;;;5036917;28;20191;-90
2020/12/08 01:41:39;;;;;;;19.37;13.77;;;4.20;99.90;;;;;;5029575;28;20172;-90
2020/12/08 01:44:07;;;;;;;19.97;13.87;;;4.30;99.90;;;;;;5036232;28;20263;-90
2020/12/08 01:46:35;;;;;;;18.30;13.07;;;4.20;99.90;;;;;;5019668;28;20191;-89
2020/12/08 01:49:02;;;;;;;19.63;12.40;;;4.30;99.90;;;;;;5019752;28;20184;-90
2020/12/08 01:51:30;;;;;;;18.50;13.13;;;4.60;99.90;;;;;;5036160;28;20164;-90
2020/12/08 01:53:58;;;;;;;18.83;13.33;;;4.90;99.90;;;;;;5038206;28;20180;-90
2020/12/08 01:56:31;;;;;;;23.50;14.90;;;5.30;99.90;;;;;;5051102;28;20187;-89
2020/12/08 01:58:59;;;;;;;21.20;14.30;;;5.50;99.90;;;;;;5041467;28;20191;-89
2020/12/08 02:01:25;;;;;;;19.77;13.70;;;5.60;99.90;;;;;;5019461;28;20687;-89
2020/12/08 02:03:52;;;;;;;23.33;13.17;;;5.60;99.90;;;;;;5036019;28;20168;-89
2020/12/08 02:06:21;;;;;;;17.77;12.23;;;5.10;99.90;;;;;;5019694;28;20179;-88
2020/12/08 02:08:46;;;;;;;19.77;13.43;;;4.70;99.90;;;;;;5018793;28;20195;-88
2020/12/08 02:11:15;;;;;;;20.93;13.90;;;4.60;99.90;;;;;;5050745;28;20172;-90
2020/12/08 02:13:40;;;;;;;17.07;12.77;;;4.50;99.90;;;;;;5033365;28;20234;-89
2020/12/08 02:16:06;;;;;;;18.07;12.87;;;4.50;99.90;;;;;;5037936;28;20188;-89
2020/12/08 02:18:32;;;;;;;15.87;12.73;;;4.50;99.90;;;;;;5035861;28;20199;-89
2020/12/08 02:21:00;;;;;;;19.57;12.10;;;4.40;99.90;;;;;;5035524;28;20554;-89
2020/12/08 02:23:26;;;;;;;15.30;13.10;;;4.60;99.90;;;;;;5035846;28;20175;-89
2020/12/08 02:26:04;;;;;;;14.00;11.83;;;4.60;99.90;;;;;;5035373;28;20180;-89
2020/12/08 02:28:37;;;;;;;17.40;13.63;;;4.60;99.90;;;;;;5018823;28;20184;-89
2020/12/08 02:31:03;;;;;;;19.93;13.13;;;4.30;99.90;;;;;;5035368;28;20169;-89
2020/12/08 02:33:30;;;;;;;18.60;13.53;;;4.20;99.90;;;;;;5035165;28;20175;-91
2020/12/08 02:35:58;;;;;;;18.20;12.27;;;4.50;99.90;;;;;;5035322;28;20643;-89
2020/12/08 02:38:25;;;;;;;17.67;13.63;;;4.60;99.90;;;;;;5035325;28;20192;-89
2020/12/08 02:40:51;;;;;;;19.50;13.33;;;4.90;99.90;;;;;;5018584;28;20188;-89
2020/12/08 02:43:20;;;;;;;21.10;13.47;;;5.30;99.90;;;;;;5015591;28;20573;-89
2020/12/08 02:45:48;;;;;;;20.70;13.60;;;5.60;99.90;;;;;;5016429;28;20169;-89
2020/12/08 02:48:14;;;;;;;14.30;12.80;;;5.80;99.90;;;;;;5015563;28;20181;-89
2020/12/08 02:50:43;;;;;;;18.63;13.53;;;5.70;99.90;;;;;;5025798;28;20179;-90
2020/12/08 02:53:12;;;;;;;17.07;12.90;;;5.60;99.90;;;;;;5019466;28;20176;-89
2020/12/08 02:55:46;;;;;;;21.53;12.97;;;5.50;99.90;;;;;;5034923;28;20617;-90
2020/12/08 02:58:20;;;;;;;21.90;14.17;;;5.50;99.90;;;;;;5034917;28;20663;-89
2020/12/08 03:00:45;;;;;;;18.40;13.40;;;5.20;99.90;;;;;;5035221;28;20188;-90
2020/12/08 03:03:11;;;;;;;16.40;12.20;;;5.10;99.90;;;;;;5035173;28;20171;-89
2020/12/08 03:05:40;;;;;;;18.23;13.30;;;5.20;99.90;;;;;;5018537;28;20168;-89
2020/12/08 03:08:06;;;;;;;19.70;13.67;;;5.40;99.90;;;;;;5018933;28;20535;-89
2020/12/08 03:10:31;;;;;;;15.07;11.37;;;5.50;99.90;;;;;;5035080;28;20165;-90
2020/12/08 03:12:59;;;;;;;11.50;10.27;;;5.70;99.90;;;;;;5035206;28;20168;-90
2020/12/08 03:15:25;;;;;;;14.63;11.73;;;5.80;99.90;;;;;;5018547;28;20195;-89
2020/12/08 03:17:51;;;;;;;15.07;10.93;;;6.00;99.90;;;;;;5034904;28;20191;-90
2020/12/08 03:20:17;;;;;;;16.47;12.10;;;6.20;99.90;;;;;;5034266;28;20182;-89
2020/12/08 03:22:42;;;;;;;13.23;11.30;;;6.30;99.90;;;;;;5034494;28;20182;-90
2020/12/08 03:25:08;;;;;;;21.23;12.23;;;6.30;99.90;;;;;;5034383;28;20175;-90
2020/12/08 03:27:39;;;;;;;15.10;12.50;;;6.40;99.90;;;;;;5034360;28;20172;-89
2020/12/08 03:30:05;;;;;;;18.40;12.50;;;6.40;99.90;;;;;;5034559;28;20325;-89
2020/12/08 03:32:34;;;;;;;16.80;13.20;;;6.50;99.90;;;;;;5018364;28;20180;-90
2020/12/08 03:35:08;;;;;;;16.63;12.40;;;6.40;99.90;;;;;;5034291;28;20180;-90
2020/12/08 03:37:36;;;;;;;18.77;13.43;;;6.40;99.90;;;;;;5034635;28;20195;-89
2020/12/08 03:40:03;;;;;;;15.23;12.50;;;6.40;99.90;;;;;;5034297;28;20175;-90
2020/12/08 03:42:29;;;;;;;19.07;11.27;;;6.40;99.90;;;;;;5034299;28;20613;-89
2020/12/08 03:44:57;;;;;;;15.50;11.93;;;6.40;99.90;;;;;;5034180;28;20207;-89
2020/12/08 03:47:23;;;;;;;19.03;12.93;;;6.40;99.90;;;;;;5033876;28;20171;-89
2020/12/08 03:49:48;;;;;;;17.40;12.77;;;6.00;99.90;;;;;;5017715;28;20168;-89
2020/12/08 03:52:14;;;;;;;17.70;12.43;;;5.90;99.90;;;;;;5017602;28;20176;-89
2020/12/08 03:54:40;;;;;;;17.77;13.40;;;6.00;99.90;;;;;;5034051;28;20207;-89
2020/12/08 03:57:05;;;;;;;17.37;13.10;;;5.90;99.90;;;;;;5033867;28;20179;-89
2020/12/08 03:59:34;;;;;;;19.80;13.80;;;5.90;99.90;;;;;;5033581;28;20196;-91
2020/12/08 04:01:59;;;;;;;18.13;13.47;;;5.90;99.90;;;;;;5014148;28;20181;-89
2020/12/08 04:04:25;;;;;;;20.30;13.00;;;5.80;99.90;;;;;;4997527;28;20263;-90
2020/12/08 04:06:51;;;;;;;15.53;12.27;;;5.60;99.90;;;;;;5014094;28;20176;-90
2020/12/08 04:09:17;;;;;;;15.80;12.27;;;5.60;99.90;;;;;;4997967;28;20303;-89
2020/12/08 04:11:50;;;;;;;16.57;13.10;;;5.50;99.90;;;;;;4997910;28;20188;-90
2020/12/08 04:14:18;;;;;;;21.83;13.70;;;5.60;99.90;;;;;;4998586;28;20196;-89
2020/12/08 04:16:44;;;;;;;16.17;12.70;;;5.50;99.90;;;;;;5015010;28;20192;-90
2020/12/08 04:19:16;;;;;;;15.63;12.83;;;5.50;99.90;;;;;;5051167;28;20207;-90
2020/12/08 04:21:41;;;;;;;13.77;11.37;;;5.70;99.90;;;;;;5048762;28;20179;-88
2020/12/08 04:24:07;;;;;;;17.77;12.70;;;5.80;99.90;;;;;;5040017;28;20199;-89
2020/12/08 04:26:33;;;;;;;21.23;14.27;;;5.90;99.90;;;;;;5033164;28;20544;-89
2020/12/08 04:29:00;;;;;;;20.50;14.63;;;6.00;99.90;;;;;;5033408;28;20183;-90
2020/12/08 04:31:28;;;;;;;18.83;13.53;;;5.90;99.90;;;;;;5016678;28;20172;-89
2020/12/08 04:33:55;;;;;;;20.73;13.60;;;6.00;99.90;;;;;;5033415;28;20168;-90
2020/12/08 04:36:22;;;;;;;20.27;14.03;;;6.10;99.90;;;;;;5048952;28;20192;-90
2020/12/08 04:38:50;;;;;;;24.47;13.93;;;6.10;99.90;;;;;;5050082;28;20653;-90
2020/12/08 04:41:25;;;;;;;20.83;13.43;;;5.70;99.90;;;;;;5020038;28;20207;-89
2020/12/08 04:43:52;;;;;;;19.43;13.93;;;5.50;99.90;;;;;;5033487;28;20171;-89
2020/12/08 04:46:19;;;;;;;19.93;13.83;;;5.40;99.90;;;;;;5033301;28;20168;-89
2020/12/08 04:48:46;;;;;;;17.93;13.23;;;5.10;99.90;;;;;;5033699;28;20172;-89
2020/12/08 04:51:12;;;;;;;21.47;13.57;;;4.90;99.90;;;;;;5034048;28;20655;-90
2020/12/08 04:53:38;;;;;;;15.93;12.70;;;4.80;99.90;;;;;;5017173;28;20200;-89
2020/12/08 04:56:03;;;;;;;19.90;13.53;;;4.90;99.90;;;;;;5033877;28;20184;-90
2020/12/08 04:58:29;;;;;;;18.20;11.90;;;5.10;99.90;;;;;;5013620;28;20196;-89
2020/12/08 05:00:55;;;;;;;17.97;12.20;;;5.30;99.90;;;;;;5013626;28;20607;-89
2020/12/08 05:03:25;;;;;;;21.23;12.93;;;5.60;99.90;;;;;;5013458;28;20262;-89
2020/12/08 05:05:52;;;;;;;17.80;13.47;;;5.80;99.90;;;;;;5013802;28;20310;-89
2020/12/08 05:08:18;;;;;;;16.50;12.93;;;6.00;99.90;;;;;;5013691;28;20180;-89
2020/12/08 05:10:46;;;;;;;21.10;13.30;;;6.20;99.90;;;;;;5013578;28;20176;-89
2020/12/08 05:13:17;;;;;;;21.27;13.77;;;6.20;99.90;;;;;;5019831;28;20177;-90
2020/12/08 05:15:42;;;;;;;18.17;13.03;;;6.00;99.90;;;;;;5032811;28;20270;-89
2020/12/08 05:18:11;;;;;;;15.93;13.00;;;5.90;99.90;;;;;;5016467;28;20287;-89
2020/12/08 05:20:43;;;;;;;19.10;12.17;;;5.80;99.90;;;;;;5032773;28;20195;-89
2020/12/08 05:23:08;;;;;;;17.90;12.77;;;5.80;99.90;;;;;;5033019;28;20187;-90
2020/12/08 05:25:34;;;;;;;18.37;13.30;;;5.70;99.90;;;;;;5032539;28;20177;-90
2020/12/08 05:28:00;;;;;;;16.30;12.30;;;5.70;99.90;;;;;;5032782;28;20203;-89
2020/12/08 05:30:27;;;;;;;18.23;12.60;;;5.90;99.90;;;;;;5032804;28;20173;-89
2020/12/08 05:32:53;;;;;;;21.03;13.13;;;6.00;99.90;;;;;;5032900;28;20184;-89
2020/12/08 05:35:24;;;;;;;17.13;13.30;;;6.10;99.90;;;;;;5033045;28;20168;-90
2020/12/08 05:37:54;;;;;;;17.50;13.10;;;6.20;99.90;;;;;;5033197;28;20196;-89
2020/12/08 05:40:25;;;;;;;18.87;12.87;;;6.20;99.90;;;;;;5032831;28;20172;-90
2020/12/08 05:42:53;;;;;;;19.60;12.43;;;5.90;99.90;;;;;;5033968;28;20250;-89
2020/12/08 05:45:24;;;;;;;17.17;12.77;;;6.00;99.90;;;;;;5038759;28;20197;-89
2020/12/08 05:47:59;;;;;;;18.27;13.00;;;6.10;99.90;;;;;;5040397;28;20175;-90
2020/12/08 05:50:26;;;;;;;20.17;13.20;;;6.20;99.90;;;;;;5039537;28;20182;-89
2020/12/08 05:52:56;;;;;;;18.43;12.73;;;5.90;99.90;;;;;;5023008;28;20183;-89
2020/12/08 05:55:24;;;;;;;19.10;12.93;;;5.50;99.90;;;;;;5039381;28;20188;-89
2020/12/08 05:57:51;;;;;;;22.17;13.40;;;5.10;99.90;;;;;;5041851;28;20191;-90
2020/12/08 06:00:25;;;;;;;16.40;12.20;;;5.00;99.90;;;;;;5043298;28;20172;-88
2020/12/08 06:02:52;;;;;;;18.90;15.57;;;5.10;99.90;;;;;;5042378;28;20437;-89
2020/12/08 06:05:30;;;;;;;19.20;13.67;;;5.10;99.90;;;;;;5060391;28;20186;-91
2020/12/08 06:07:57;;;;;;;17.20;12.37;;;5.30;99.90;;;;;;5059767;28;20171;-89
2020/12/08 06:10:23;;;;;;;17.20;13.00;;;5.60;99.90;;;;;;5057159;28;20175;-89
2020/12/08 06:13:08;;;;;;;21.00;13.87;;;5.90;99.90;;;;;;5021893;28;20181;-90
2020/12/08 06:15:39;;;;;;;21.50;12.67;;;6.00;99.90;;;;;;5037561;28;20183;-89
2020/12/08 06:18:05;;;;;;;15.47;10.70;;;6.10;99.90;;;;;;5020767;28;20200;-89
2020/12/08 06:20:31;;;;;;;18.33;12.73;;;6.20;99.90;;;;;;5020456;28;20187;-88
2020/12/08 06:22:58;;;;;;;15.27;11.53;;;6.30;99.90;;;;;;5036660;28;20172;-89
2020/12/08 06:25:25;;;;;;;18.23;13.23;;;6.30;99.90;;;;;;5037136;28;20183;-89
2020/12/08 06:27:57;;;;;;;14.67;11.50;;;6.30;99.90;;;;;;5036433;28;20175;-90
2020/12/08 06:30:23;;;;;;;18.53;12.87;;;6.40;99.90;;;;;;5037270;28;20244;-89
2020/12/08 06:32:54;;;;;;;19.97;13.17;;;6.30;99.90;;;;;;5035599;28;20620;-90
2020/12/08 06:35:20;;;;;;;19.33;12.63;;;6.30;99.90;;;;;;5036283;28;20170;-89
2020/12/08 06:37:54;;;;;;;18.47;13.20;;;6.10;99.90;;;;;;5035651;28;20322;-90
2020/12/08 06:40:27;;;;;;;19.10;13.30;;;6.00;99.90;;;;;;5035324;28;20180;-89
2020/12/08 06:42:53;;;;;;;22.73;13.00;;;6.00;99.90;;;;;;5037337;28;20172;-90
2020/12/08 06:45:24;;;;;;;21.80;12.80;;;6.00;99.90;;;;;;5055241;28;20199;-90
2020/12/08 06:47:51;;;;;;;20.87;13.30;;;6.00;99.90;;;;;;5012548;28;20184;-91
2020/12/08 06:50:31;;;;;;;18.93;13.63;;;5.90;99.90;;;;;;5020083;28;20372;-89
2020/12/08 06:53:01;;;;;;;26.47;14.50;;;5.90;99.90;;;;;;4999607;28;20686;-90
2020/12/08 06:55:29;;;;;;;18.17;12.70;;;5.90;99.90;;;;;;5015022;28;20185;-89
2020/12/08 06:58:06;;;;;;;18.17;12.30;;;5.80;99.90;;;;;;5035472;28;20238;-90
2020/12/08 07:00:32;;;;;;;22.20;13.57;;;5.70;99.90;;;;;;5021856;28;20285;-89
2020/12/08 07:03:00;;;;;;;20.77;13.53;;;5.60;99.90;;;;;;5055530;28;20195;-89
2020/12/08 07:05:31;;;;;;;20.90;14.87;;;5.50;99.90;;;;;;5046783;28;20172;-89
2020/12/08 07:08:01;;;;;;;19.67;13.83;;;5.30;99.90;;;;;;5021761;28;20180;-90
2020/12/08 07:10:35;;;;;;;24.07;13.80;;;5.20;99.90;;;;;;5020580;28;20176;-90
2020/12/08 07:13:01;;;;;;;19.67;13.63;;;5.10;99.90;;;;;;5035619;28;20164;-89
2020/12/08 07:15:27;;;;;;;25.27;14.03;;;5.10;99.90;;;;;;5035307;28;20666;-89
2020/12/08 07:17:57;;;;;;;20.30;13.73;;;5.10;99.90;;;;;;5018559;28;20191;-90
2020/12/08 07:20:24;;;;;;;29.30;15.73;;;5.20;99.90;;;;;;5034952;28;20621;-90
2020/12/08 07:22:53;;;;;;;24.80;14.33;;;5.20;99.90;;;;;;5034901;28;20259;-89
2020/12/08 07:25:22;;;;;;;24.00;15.73;;;5.20;99.90;;;;;;5019150;28;20433;-89
2020/12/08 07:27:52;;;;;;;21.60;14.50;;;5.20;99.90;;;;;;5020037;28;20180;-89
2020/12/08 07:30:20;;;;;;;27.50;14.37;;;5.10;99.90;;;;;;5035623;28;20186;-89
2020/12/08 07:32:48;;;;;;;24.57;15.37;;;5.10;99.90;;;;;;5034884;28;20247;-90
2020/12/08 07:35:26;;;;;;;24.67;14.17;;;5.10;99.90;;;;;;5003203;28;20168;-90
2020/12/08 07:37:54;;;;;;;25.70;14.47;;;5.20;99.90;;;;;;5035312;28;20592;-89
2020/12/08 07:40:23;;;;;;;25.90;15.00;;;5.20;99.90;;;;;;5034411;28;20172;-90
2020/12/08 07:42:52;;;;;;;21.83;13.43;;;5.20;99.90;;;;;;5034866;28;20591;-89
2020/12/08 07:45:23;;;;;;;31.07;16.20;;;5.20;99.90;;;;;;5034549;28;20172;-89
2020/12/08 07:47:59;;;;;;;28.77;14.97;;;5.20;99.90;;;;;;5033825;28;20180;-90
2020/12/08 07:50:32;;;;;;;23.30;15.10;;;5.10;99.90;;;;;;5034661;28;20199;-88
2020/12/08 07:53:07;;;;;;;27.50;16.00;;;5.20;99.90;;;;;;5034187;28;20169;-89
2020/12/08 07:55:43;;;;;;;22.73;14.67;;;5.20;99.90;;;;;;5035608;28;20262;-89
2020/12/08 07:58:12;;;;;;;31.07;17.33;;;5.20;99.90;;;;;;5034232;28;20187;-89
2020/12/08 08:00:38;;;;;;;40.57;17.33;;;5.30;99.90;;;;;;5018510;28;20176;-89
2020/12/08 08:03:05;;;;;;;33.23;16.97;;;5.30;99.90;;;;;;5035508;28;20621;-88
2020/12/08 08:05:32;;;;;;;33.93;16.27;;;5.40;99.90;;;;;;5037910;28;20180;-89
2020/12/08 08:07:58;;;;;;;35.63;16.33;;;5.60;99.90;;;;;;5026054;28;20179;-89
2020/12/08 08:10:24;;;;;;;29.13;15.97;;;5.70;99.90;;;;;;5037673;28;20172;-89
2020/12/08 08:12:50;;;;;;;26.23;14.80;;;5.80;99.90;;;;;;5035038;28;20172;-89
2020/12/08 08:15:16;;;;;;;28.07;13.77;;;5.90;99.90;;;;;;5034167;28;20199;-89
2020/12/08 08:17:42;;;;;;;20.40;13.63;;;6.00;99.90;;;;;;5038635;28;20176;-88
2020/12/08 08:20:08;;;;;;;20.73;13.57;;;6.10;99.90;;;;;;5039048;28;20168;-91
2020/12/08 08:22:34;;;;;;;26.00;14.87;;;6.20;99.90;;;;;;5041041;28;20165;-90
2020/12/08 08:25:02;;;;;;;23.83;13.93;;;6.40;99.90;;;;;;5039714;28;20176;-88
2020/12/08 08:27:27;;;;;;;24.13;14.37;;;6.60;99.90;;;;;;5038540;28;20306;-88
2020/12/08 08:29:53;;;;;;;23.27;13.83;;;6.80;99.90;;;;;;5036230;28;20231;-88
2020/12/08 08:32:19;;;;;;;26.53;14.77;;;7.00;99.90;;;;;;5018666;28;20176;-88
2020/12/08 08:34:45;;;;;;;25.47;13.87;;;7.20;99.90;;;;;;5019389;28;20179;-88
2020/12/08 08:37:10;;;;;;;17.43;11.90;;;7.40;99.90;;;;;;5035182;28;20238;-88
2020/12/08 08:39:36;;;;;;;19.43;13.20;;;7.60;99.90;;;;;;5034544;28;20199;-88
2020/12/08 08:42:02;;;;;;;17.17;13.27;;;7.70;99.90;;;;;;5018221;28;20184;-87
2020/12/08 08:44:28;;;;;;;18.47;13.30;;;8.00;99.90;;;;;;5021534;28;20235;-87
2020/12/08 08:46:53;;;;;;;21.73;14.00;;;8.20;99.90;;;;;;5016289;28;20176;-87
2020/12/08 08:49:21;;;;;;;24.57;13.00;;;8.40;99.90;;;;;;5018764;28;20183;-86
2020/12/08 08:51:47;;;;;;;17.27;13.50;;;8.40;99.90;;;;;;5018118;28;20214;-86
2020/12/08 08:54:16;;;;;;;26.00;13.13;;;8.40;99.90;;;;;;5024891;28;20172;-87
2020/12/08 08:56:42;;;;;;;17.27;12.90;;;8.50;99.90;;;;;;5033141;28;20680;-87
2020/12/08 08:59:08;;;;;;;26.83;14.07;;;8.50;99.90;;;;;;5018128;28;20250;-87
2020/12/08 09:01:35;;;;;;;19.73;12.37;;;8.50;99.90;;;;;;5024716;28;20187;-88
2020/12/08 09:04:01;;;;;;;21.43;12.33;;;8.50;99.90;;;;;;5038495;28;20607;-86
2020/12/08 09:06:27;;;;;;;16.27;11.10;;;8.60;99.90;;;;;;5034675;28;20168;-87
2020/12/08 09:08:53;;;;;;;16.57;11.60;;;8.70;99.90;;;;;;5031144;28;20188;-86
2020/12/08 09:11:19;;;;;;;24.13;11.80;;;8.70;99.90;;;;;;5056435;28;20196;-88
2020/12/08 09:13:45;;;;;;;17.83;12.60;;;8.70;99.90;;;;;;5051827;28;20188;-88
2020/12/08 09:18:40;;;;;;;27.30;11.57;;;8.70;99.90;;;;;;5000397;28;20211;-88
2020/12/08 09:21:06;;;;;;;15.33;10.87;;;8.70;99.90;;;;;;5032201;28;20270;-88
2020/12/08 09:23:34;;;;;;;17.60;11.90;;;8.60;99.90;;;;;;5022242;28;20176;-88
2020/12/08 09:26:02;;;;;;;22.50;12.50;;;8.60;99.90;;;;;;5048123;28;20164;-90
2020/12/08 09:28:31;;;;;;;20.87;12.33;;;8.60;99.90;;;;;;5058489;28;20176;-87
2020/12/08 09:30:56;;;;;;;31.63;17.13;;;8.70;99.90;;;;;;5047815;28;20176;-88
2020/12/08 09:33:22;;;;;;;36.30;18.60;;;8.80;99.90;;;;;;5037605;28;20689;-89
2020/12/08 09:35:48;;;;;;;31.03;18.07;;;9.00;99.90;;;;;;5020562;28;20176;-89
2020/12/08 09:38:14;;;;;;;34.10;17.97;;;9.10;99.90;;;;;;5019985;28;20210;-89
2020/12/08 09:40:43;;;;;;;30.87;17.40;;;9.00;99.90;;;;;;5036607;28;20631;-89
2020/12/08 09:43:09;;;;;;;49.77;23.93;;;9.00;99.90;;;;;;5020140;28;20238;-89
2020/12/08 09:45:38;;;;;;;45.33;23.20;;;9.00;99.90;;;;;;5036249;28;20170;-88
2020/12/08 09:48:08;;;;;;;36.17;19.47;;;9.00;99.90;;;;;;5036479;28;20190;-89
2020/12/08 09:50:36;;;;;;;44.00;21.60;;;9.10;99.90;;;;;;5035807;28;20206;-89
2020/12/08 09:53:05;;;;;;;51.10;22.13;;;9.10;99.90;;;;;;5001066;28;20184;-89
2020/12/08 09:55:30;;;;;;;35.87;18.60;;;9.20;99.90;;;;;;5016155;28;20176;-89
2020/12/08 09:57:58;;;;;;;38.47;19.53;;;9.30;99.90;;;;;;5032531;28;20226;-88
2020/12/08 10:00:24;;;;;;;38.77;21.00;;;9.40;99.90;;;;;;5036126;28;20183;-89
2020/12/08 10:02:50;;;;;;;36.20;20.63;;;9.60;99.90;;;;;;5020500;28;20184;-90
2020/12/08 10:05:16;;;;;;;43.00;20.83;;;9.50;99.90;;;;;;5039217;28;20173;-89
2020/12/08 10:07:44;;;;;;;40.03;20.63;;;9.50;99.90;;;;;;5036649;28;20196;-88
2020/12/08 10:10:13;;;;;;;34.00;19.10;;;9.50;99.90;;;;;;5039980;28;20168;-88
2020/12/08 10:12:39;;;;;;;37.67;18.67;;;9.50;99.90;;;;;;5042963;28;20169;-88
2020/12/08 10:15:09;;;;;;;29.80;17.83;;;9.50;99.90;;;;;;5036464;28;20187;-89
2020/12/08 10:17:37;;;;;;;31.33;17.67;;;9.40;99.90;;;;;;5019957;28;20222;-88
2020/12/08 10:20:03;;;;;;;28.27;16.90;;;9.40;99.90;;;;;;5003440;28;20187;-88
2020/12/08 10:22:29;;;;;;;27.73;16.33;;;9.50;99.90;;;;;;5037506;28;20211;-88
2020/12/08 10:24:54;;;;;;;30.93;16.43;;;9.70;99.90;;;;;;5036527;28;20187;-88
2020/12/08 10:27:21;;;;;;;30.03;16.90;;;10.00;99.90;;;;;;5036061;28;20310;-89
2020/12/08 10:29:48;;;;;;;32.33;18.17;;;10.20;99.90;;;;;;5026627;28;20196;-89
2020/12/08 10:32:31;;;;;;;24.33;16.17;;;10.40;99.90;;;;;;5024939;28;20172;-90
2020/12/08 10:34:57;;;;;;;28.35;15.85;;;10.40;99.90;;;;;;5036063;28;20257;-90
2020/12/08 10:37:23;;;;;;;25.17;16.77;;;10.40;99.90;;;;;;5035561;28;20241;-89
2020/12/08 10:39:51;;;;;;;26.15;15.43;;;10.40;99.90;;;;;;5035504;28;20195;-91
2020/12/08 10:42:19;;;;;;;26.98;15.60;;;10.40;99.90;;;;;;5036519;28;20187;-90
2020/12/08 10:44:47;;;;;;;22.48;15.27;;;10.50;99.90;;;;;;5036168;28;20172;-91
2020/12/08 10:47:13;;;;;;;22.40;16.17;;;10.40;99.90;;;;;;5019089;28;20191;-91
2020/12/08 10:49:39;;;;;;;40.30;17.08;;;10.40;99.90;;;;;;5036070;28;20635;-91
2020/12/08 10:52:07;;;;;;;31.17;16.67;;;10.40;99.90;;;;;;5035998;28;20171;-90
2020/12/08 10:54:42;;;;;;;25.75;16.42;;;10.50;99.90;;;;;;5035964;28;20278;-91
2020/12/08 10:57:08;;;;;;;28.52;15.93;;;10.60;99.90;;;;;;5036602;28;20172;-90
2020/12/08 10:59:33;;;;;;;27.35;18.35;;;10.70;99.90;;;;;;5034994;28;20203;-90
2020/12/08 11:01:59;;;;;;;32.75;17.67;;;10.80;99.90;;;;;;5035605;28;20176;-90
2020/12/08 11:04:30;;;;;;;30.58;17.58;;;11.00;99.90;;;;;;5035003;28;20176;-90
2020/12/08 11:06:57;;;;;;;29.67;16.92;;;11.10;99.90;;;;;;5035445;28;20175;-90
2020/12/08 11:09:23;;;;;;;28.35;18.08;;;11.40;99.90;;;;;;5035606;28;20180;-90
2020/12/08 11:11:49;;;;;;;29.33;18.23;;;11.80;99.90;;;;;;5036445;28;20195;-90
2020/12/08 11:14:14;;;;;;;26.95;16.45;;;12.70;99.90;;;;;;5018783;28;20657;-89
2020/12/08 11:16:42;;;;;;;21.80;15.52;;;14.50;99.90;;;;;;5035862;28;20164;-91
2020/12/08 11:19:08;;;;;;;26.40;14.52;;;16.60;99.90;;;;;;5036218;28;20275;-89
2020/12/08 11:21:43;;;;;;;18.33;12.95;;;18.80;99.90;;;;;;5033038;28;20245;-90
2020/12/08 11:24:11;;;;;;;16.67;13.82;;;20.60;99.90;;;;;;5037383;28;20171;-89
2020/12/08 11:26:37;;;;;;;15.05;12.55;;;22.00;99.90;;;;;;5036753;28;20250;-88
2020/12/08 11:29:09;;;;;;;14.93;13.13;;;22.50;99.90;;;;;;5037041;28;20614;-89
2020/12/08 11:31:35;;;;;;;13.43;11.95;;;23.30;99.50;;;;;;5039491;28;20199;-89
2020/12/08 11:34:01;;;;;;;17.77;12.35;;;24.00;97.80;;;;;;5055882;28;20202;-89
2020/12/08 11:36:26;;;;;;;15.07;11.35;;;24.40;95.50;;;;;;5033458;28;20645;-89
2020/12/08 11:38:55;;;;;;;13.15;11.80;;;25.10;95.20;;;;;;5043752;28;20192;-89
2020/12/08 11:41:20;;;;;;;18.50;12.60;;;25.70;93.00;;;;;;5024059;28;20180;-87
2020/12/08 11:43:53;;;;;;;12.35;11.10;;;26.00;91.80;;;;;;5043360;28;20253;-89
2020/12/08 11:46:19;;;;;;;17.42;12.52;;;25.20;91.90;;;;;;5038733;28;20167;-88
2020/12/08 11:48:47;;;;;;;21.65;12.25;;;24.20;92.00;;;;;;5036483;28;20176;-88
2020/12/08 11:51:12;;;;;;;18.23;12.20;;;23.40;92.50;;;;;;5055304;28;20148;-89
2020/12/08 11:53:41;;;;;;;14.57;12.05;;;22.20;93.30;;;;;;5035735;28;20202;-89
2020/12/08 11:56:06;;;;;;;14.27;12.68;;;21.30;94.60;;;;;;5035021;28;20618;-89
2020/12/08 11:58:34;;;;;;;14.25;12.63;;;20.30;95.70;;;;;;5034125;28;20228;-89
2020/12/08 12:01:00;;;;;;;14.90;12.43;;;20.40;96.10;;;;;;5034336;28;20511;-88
2020/12/08 12:03:26;;;;;;;15.80;11.43;;;20.90;95.00;;;;;;5036055;28;20183;-88
2020/12/08 12:05:53;;;;;;;13.40;12.13;;;21.60;94.40;;;;;;5045996;28;20175;-88
2020/12/08 12:08:18;;;;;;;13.63;12.20;;;21.70;93.80;;;;;;5037042;28;20519;-88
2020/12/08 12:10:44;;;;;;;15.27;12.50;;;22.00;93.50;;;;;;5034024;28;20263;-88
2020/12/08 12:13:10;;;;;;;12.88;11.57;;;21.90;94.00;;;;;;5034008;28;20267;-89
2020/12/08 12:15:35;;;;;;;19.10;12.35;;;22.70;93.20;;;;;;5034168;28;20208;-88
2020/12/08 12:18:01;;;;;;;12.90;11.50;;;21.90;93.00;;;;;;5033811;28;20203;-89
2020/12/08 12:20:29;;;;;;;13.63;12.13;;;22.60;92.80;;;;;;5033936;28;20180;-89
2020/12/08 12:22:57;;;;;;;12.68;11.48;;;22.90;92.20;;;;;;5039137;28;20213;-88
2020/12/08 12:25:25;;;;;;;12.43;11.20;;;22.90;92.10;;;;;;5038799;28;20242;-89
2020/12/08 12:27:51;;;;;;;11.65;10.45;;;23.00;92.00;;;;;;5033680;28;20191;-89
2020/12/08 12:30:16;;;;;;;11.20;10.20;;;23.00;91.00;;;;;;5017103;28;20200;-88
2020/12/08 12:32:42;;;;;;;12.23;11.23;;;22.60;91.40;;;;;;5033907;28;20207;-88
2020/12/08 12:35:08;;;;;;;12.57;11.38;;;22.80;91.40;;;;;;5018688;28;20176;-88
2020/12/08 12:37:33;;;;;;;12.00;10.90;;;22.90;91.40;;;;;;5033749;28;20168;-88
2020/12/08 12:39:59;;;;;;;12.77;11.50;;;23.10;90.90;;;;;;5001752;28;20180;-88